createdAt,value
2019-06-26T00:03:25.638Z,7.87
2019-06-26T00:08:30.981Z,8.40
2019-06-26T00:13:36.363Z,8.93
2019-06-26T00:18:44.072Z,8.93
2019-06-26T00:23:49.572Z,9.57
2019-06-26T00:28:55.159Z,10.20
2019-06-26T00:34:00.539Z,9.25
2019-06-26T00:39:07.805Z,8.38
2019-06-26T00:44:13.449Z,12.10
2019-06-26T00:49:18.958Z,7.70
2019-06-26T00:54:24.309Z,8.28
2019-06-26T00:59:29.691Z,9.03
2019-06-26T01:04:38.158Z,9.37
2019-06-26T01:09:43.539Z,8.50
2019-06-26T01:14:48.974Z,9.08
2019-06-26T01:19:54.206Z,9.98
2019-06-26T01:25:00.505Z,8.90
2019-06-26T01:30:07.640Z,9.78
2019-06-26T01:35:13.834Z,9.13
2019-06-26T01:40:19.139Z,9.50
2019-06-26T01:45:24.441Z,10.23
2019-06-26T01:50:29.663Z,11.88
2019-06-26T01:55:35.157Z,8.83
2019-06-26T02:00:44.333Z,9.45
2019-06-26T02:05:49.761Z,8.83
2019-06-26T02:10:55.222Z,9.43
2019-06-26T02:16:00.717Z,9.20
2019-06-26T02:21:06.144Z,11.38
2019-06-26T02:26:11.543Z,8.45
2019-06-26T02:31:16.890Z,10.40
2019-06-26T02:36:22.165Z,9.60
2019-06-26T02:41:27.553Z,8.17
2019-06-26T02:46:32.794Z,8.98
2019-06-26T02:51:38.442Z,9.63
2019-06-26T02:56:43.832Z,9.68
2019-06-26T03:01:49.185Z,9.50
2019-06-26T03:06:54.409Z,8.97
2019-06-26T03:12:00.247Z,9.33
2019-06-26T03:17:05.616Z,9.20
2019-06-26T03:22:11.055Z,10.48
2019-06-26T03:27:16.381Z,12.25
2019-06-26T03:32:21.792Z,9.95
2019-06-26T03:37:27.254Z,10.07
2019-06-26T03:42:32.957Z,8.93
2019-06-26T03:47:38.347Z,9.33
2019-06-26T03:52:43.700Z,10.05
2019-06-26T03:57:48.995Z,10.00
2019-06-26T04:02:54.452Z,11.33
2019-06-26T04:07:59.873Z,10.67
2019-06-26T04:13:06.208Z,8.67
2019-06-26T04:18:11.908Z,8.25
2019-06-26T04:23:17.492Z,10.48
2019-06-26T04:28:22.955Z,11.60
2019-06-26T04:33:28.176Z,10.72
2019-06-26T04:38:33.449Z,14.43
2019-06-26T04:43:38.822Z,12.70
2019-06-26T04:48:44.162Z,10.98
2019-06-26T04:53:49.571Z,13.43
2019-06-26T04:58:54.792Z,11.83
2019-06-26T05:04:00.500Z,12.25
2019-06-26T05:09:07.768Z,13.62
2019-06-26T05:14:13.200Z,13.22
2019-06-26T05:19:18.824Z,16.50
2019-06-26T05:24:24.417Z,14.47
2019-06-26T05:29:29.903Z,16.70
2019-06-26T05:34:35.192Z,16.95
2019-06-26T05:39:40.444Z,18.17
2019-06-26T05:44:46.759Z,18.90
2019-06-26T05:49:52.160Z,19.63
2019-06-26T05:54:57.614Z,19.90
2019-06-26T06:00:03.030Z,21.50
2019-06-26T06:05:08.958Z,23.32
2019-06-26T06:10:15.562Z,21.90
2019-06-26T06:15:20.901Z,22.40
2019-06-26T06:20:35.753Z,21.50
2019-06-26T06:25:40.981Z,22.80
2019-06-26T06:30:46.221Z,22.35
2019-06-26T06:35:52.812Z,26.42
2019-06-26T06:40:58.352Z,21.80
2019-06-26T06:46:03.746Z,19.65
2019-06-26T06:51:09.135Z,20.20
2019-06-26T06:56:16.424Z,19.60
2019-06-26T07:01:21.729Z,18.90
2019-06-26T07:06:27.218Z,21.12
2019-06-26T07:11:32.539Z,18.98
2019-06-26T07:16:38.202Z,18.87
2019-06-26T07:21:43.543Z,20.00
2019-06-26T07:26:49.878Z,19.37
2019-06-26T07:31:55.567Z,19.95
2019-06-26T07:37:00.823Z,19.40
2019-06-26T07:42:06.543Z,20.90
2019-06-26T07:47:22.499Z,19.70
2019-06-26T07:52:19.090Z,19.15
2019-06-26T07:57:24.531Z,20.37
2019-06-26T08:02:30.042Z,22.27
2019-06-26T08:07:35.776Z,20.97
2019-06-26T08:12:41.556Z,22.42
2019-06-26T08:17:59.754Z,21.67
2019-06-26T08:22:54.161Z,20.33
2019-06-26T08:27:59.572Z,21.80
2019-06-26T08:33:05.037Z,21.80
2019-06-26T08:38:15.356Z,18.95
2019-06-26T08:43:17.544Z,19.33
2019-06-26T08:48:38.845Z,17.57
2019-06-26T08:53:31.750Z,19.10
2019-06-26T08:58:37.265Z,17.57
2019-06-26T09:03:42.698Z,17.65
2019-06-26T09:08:49.269Z,17.35
2019-06-26T09:13:54.531Z,15.48
2019-06-26T09:18:59.901Z,15.20
2019-06-26T09:24:05.353Z,13.40
2019-06-26T09:29:10.898Z,14.23
2019-06-26T09:34:16.362Z,14.00
2019-06-26T09:39:21.626Z,12.82
2019-06-26T09:44:26.995Z,12.37
2019-06-26T09:49:32.508Z,12.18
2019-06-26T09:54:37.837Z,14.10
2019-06-26T09:59:46.823Z,15.23
2019-06-26T10:04:52.141Z,12.70
2019-06-26T10:09:57.491Z,13.68
2019-06-26T10:15:02.954Z,11.63
2019-06-26T10:20:09.321Z,11.30
2019-06-26T10:25:14.753Z,10.37
2019-06-26T10:30:20.365Z,12.23
2019-06-26T10:35:25.745Z,10.70
2019-06-26T10:40:31.190Z,11.07
2019-06-26T10:45:36.572Z,10.63
2019-06-26T10:50:49.809Z,8.23
2019-06-26T10:55:49.245Z,9.10
2019-06-26T11:00:54.626Z,11.30
2019-06-26T11:06:02.567Z,9.23
2019-06-26T11:11:07.977Z,7.23
2019-06-26T11:16:14.526Z,8.70
2019-06-26T11:21:20.821Z,8.40
2019-06-26T11:26:26.150Z,9.20
2019-06-26T11:31:31.492Z,12.75
2019-06-26T11:36:37.023Z,8.43
2019-06-26T11:41:42.719Z,9.28
2019-06-26T11:46:48.341Z,7.27
2019-06-26T11:51:54.067Z,9.43
2019-06-26T11:57:01.183Z,10.40
2019-06-26T12:02:08.287Z,7.83
2019-06-26T12:07:13.994Z,11.63
2019-06-26T12:12:19.577Z,10.27
2019-06-26T12:17:24.843Z,11.85
2019-06-26T12:22:30.089Z,10.08
2019-06-26T12:27:35.631Z,12.43
2019-06-26T12:32:42.554Z,10.53
2019-06-26T12:37:48.512Z,9.88
2019-06-26T12:42:55.705Z,9.85
2019-06-26T12:48:00.809Z,10.40
2019-06-26T12:53:06.234Z,12.80
2019-06-26T12:58:15.026Z,15.78
2019-06-26T13:03:18.997Z,12.13
2019-06-26T13:08:24.299Z,9.75
2019-06-26T13:13:30.511Z,11.68
2019-06-26T13:18:36.190Z,9.30
2019-06-26T13:23:41.495Z,11.48
2019-06-26T13:28:47.123Z,10.90
2019-06-26T13:33:52.872Z,9.68
2019-06-26T13:38:58.280Z,12.30
2019-06-26T13:44:03.985Z,10.27
2019-06-26T13:49:09.372Z,11.60
2019-06-26T13:54:14.896Z,12.63
2019-06-26T13:59:22.328Z,11.90
2019-06-26T14:04:27.541Z,13.68
2019-06-26T14:09:33.502Z,10.77
2019-06-26T14:14:56.206Z,10.30
2019-06-26T14:19:46.876Z,10.90
2019-06-26T14:24:54.216Z,14.00
2019-06-26T14:29:59.436Z,12.77
2019-06-26T14:35:05.162Z,10.98
2019-06-26T14:40:10.947Z,10.50
2019-06-26T14:45:16.484Z,11.50
2019-06-26T14:50:23.017Z,9.70
2019-06-26T14:55:28.390Z,12.73
2019-06-26T15:00:33.994Z,10.80
2019-06-26T15:05:40.593Z,9.75
2019-06-26T15:10:46.015Z,11.05
2019-06-26T15:15:54.640Z,12.45
2019-06-26T15:20:58.644Z,9.63
2019-06-26T15:26:04.361Z,13.10
2019-06-26T15:31:10.141Z,10.38
2019-06-26T15:36:15.503Z,10.50
2019-06-26T15:41:21.091Z,10.98
2019-06-26T15:46:30.532Z,10.18
2019-06-26T15:51:36.959Z,11.20
2019-06-26T15:56:42.305Z,12.15
2019-06-26T16:01:47.754Z,11.90
2019-06-26T16:06:53.092Z,11.45
2019-06-26T16:11:59.064Z,9.63
2019-06-26T16:17:09.605Z,9.23
2019-06-26T16:22:31.203Z,9.97
2019-06-26T16:27:23.174Z,8.30
2019-06-26T16:32:28.546Z,10.15
2019-06-26T16:37:33.893Z,10.45
2019-06-26T16:42:39.599Z,10.65
2019-06-26T16:47:45.733Z,9.37
2019-06-26T16:52:51.453Z,12.37
2019-06-26T16:57:56.794Z,10.32
2019-06-26T17:03:02.094Z,11.35
2019-06-26T17:08:07.532Z,9.45
2019-06-26T17:13:12.948Z,9.58
2019-06-26T17:18:18.631Z,10.03
2019-06-26T17:23:24.371Z,9.35
2019-06-26T17:28:29.648Z,10.33
2019-06-26T17:33:35.044Z,9.23
2019-06-26T17:38:40.415Z,13.63
2019-06-26T17:43:46.990Z,10.27
2019-06-26T17:48:52.349Z,8.93
2019-06-26T17:53:57.799Z,10.13
2019-06-26T17:59:03.205Z,10.35
2019-06-26T18:04:08.492Z,9.83
2019-06-26T18:09:13.896Z,10.10
2019-06-26T18:14:19.206Z,12.17
2019-06-26T18:19:24.949Z,14.85
2019-06-26T18:24:30.687Z,10.98
2019-06-26T18:29:36.429Z,11.30
2019-06-26T18:34:41.968Z,11.15
2019-06-26T18:39:47.320Z,12.75
2019-06-26T18:44:52.739Z,12.28
2019-06-26T18:50:02.175Z,12.53
2019-06-26T18:55:07.818Z,13.03
2019-06-26T19:00:15.806Z,13.60
2019-06-26T19:05:21.197Z,15.30
2019-06-26T19:10:26.625Z,13.50
2019-06-26T19:15:31.971Z,14.77
2019-06-26T19:20:37.324Z,13.58
2019-06-26T19:25:42.659Z,13.85
2019-06-26T19:30:48.438Z,13.53
2019-06-26T19:35:54.007Z,14.55
2019-06-26T19:40:59.323Z,13.40
2019-06-26T19:46:04.845Z,14.18
2019-06-26T19:51:10.478Z,13.20
2019-06-26T19:56:20.081Z,14.15
2019-06-26T20:01:24.047Z,21.93
2019-06-26T20:06:29.512Z,15.05
2019-06-26T20:11:37.376Z,14.83
2019-06-26T20:16:43.600Z,14.18
2019-06-26T20:21:49.863Z,14.70
2019-06-26T20:26:55.415Z,14.70
2019-06-26T20:32:01.108Z,14.87
2019-06-26T20:37:06.432Z,14.65
2019-06-26T20:42:11.992Z,18.12
2019-06-26T20:47:17.412Z,14.63
2019-06-26T20:52:22.859Z,15.23
2019-06-26T20:57:28.218Z,15.38
2019-06-26T21:02:33.965Z,15.32
2019-06-26T21:07:42.670Z,15.43
2019-06-26T21:12:48.083Z,14.98
2019-06-26T21:17:54.751Z,15.70
2019-06-26T21:23:00.033Z,14.95
2019-06-26T21:28:06.522Z,15.20
2019-06-26T21:33:12.018Z,14.98
2019-06-26T21:38:21.779Z,15.75
2019-06-26T21:43:27.175Z,15.23
2019-06-26T21:48:32.523Z,15.38
2019-06-26T21:53:37.909Z,15.80
2019-06-26T21:59:01.606Z,16.07
2019-06-26T22:04:25.973Z,15.83
2019-06-26T22:09:33.405Z,16.00
2019-06-26T22:14:40.756Z,15.93
2019-06-26T22:19:46.168Z,16.12
2019-06-26T22:24:51.771Z,15.65
2019-06-26T22:29:57.270Z,15.30
2019-06-26T22:35:03.368Z,15.03
2019-06-26T22:40:08.845Z,15.63
2019-06-26T22:45:14.616Z,15.03
2019-06-26T22:50:19.912Z,15.60
2019-06-26T22:55:25.246Z,17.20
2019-06-26T23:00:30.614Z,14.60
2019-06-26T23:05:35.883Z,14.90
2019-06-26T23:10:41.225Z,14.47
2019-06-26T23:15:46.638Z,16.93
2019-06-26T23:20:51.973Z,17.10
2019-06-26T23:25:57.475Z,13.78
2019-06-26T23:31:02.979Z,15.53
2019-06-26T23:36:08.386Z,15.98
2019-06-26T23:41:13.680Z,16.10
2019-06-26T23:46:19.313Z,13.00
2019-06-26T23:51:24.645Z,13.73
2019-06-26T23:56:40.040Z,15.60
